createdAt,value
2022-10-30T00:01:40.325Z,5.55
2022-10-30T00:04:10.073Z,5.90
2022-10-30T00:06:39.112Z,6.05
2022-10-30T00:09:08.886Z,6.00
2022-10-30T00:11:37.821Z,6.03
2022-10-30T00:14:07.395Z,5.40
2022-10-30T00:16:36.335Z,6.00
2022-10-30T00:19:05.569Z,5.87
2022-10-30T00:21:36.001Z,5.85
2022-10-30T00:24:07.903Z,5.75
2022-10-30T00:26:37.794Z,5.50
2022-10-30T00:29:07.386Z,5.25
2022-10-30T00:31:38.017Z,5.22
2022-10-30T00:34:07.045Z,5.37
2022-10-30T00:36:39.515Z,5.40
2022-10-30T00:39:08.277Z,4.78
2022-10-30T00:41:39.206Z,5.03
2022-10-30T00:44:47.332Z,5.20
2022-10-30T00:47:28.431Z,4.53
2022-10-30T00:50:08.941Z,5.22
2022-10-30T00:52:46.642Z,4.72
2022-10-30T00:55:19.895Z,4.70
2022-10-30T00:57:50.702Z,5.20
2022-10-30T01:00:22.962Z,4.72
2022-10-30T01:02:52.857Z,4.97
2022-10-30T01:05:23.225Z,4.47
2022-10-30T01:07:55.171Z,4.70
2022-10-30T01:10:23.831Z,4.42
2022-10-30T01:12:54.094Z,4.10
2022-10-30T01:15:33.569Z,4.65
2022-10-30T01:18:25.822Z,4.42
2022-10-30T01:21:21.781Z,4.08
2022-10-30T01:24:14.236Z,4.65
2022-10-30T01:27:08.372Z,4.42
2022-10-30T01:29:46.490Z,4.90
2022-10-30T01:32:39.289Z,4.53
2022-10-30T01:35:20.870Z,3.83
2022-10-30T01:38:04.129Z,4.20
2022-10-30T01:40:33.806Z,4.05
2022-10-30T01:43:02.706Z,4.75
2022-10-30T01:45:44.924Z,4.83
2022-10-30T01:49:01.952Z,4.20
2022-10-30T01:52:04.700Z,3.95
2022-10-30T01:55:02.166Z,4.80
2022-10-30T01:57:55.862Z,3.55
2022-10-30T02:00:25.420Z,4.78
2022-10-30T02:02:54.941Z,3.90
2022-10-30T02:05:44.765Z,3.67
2022-10-30T02:08:13.609Z,4.08
2022-10-30T02:10:44.812Z,4.47
2022-10-30T02:13:14.792Z,4.30
2022-10-30T02:15:46.321Z,4.17
2022-10-30T02:18:15.812Z,3.70
2022-10-30T02:20:44.297Z,4.12
2022-10-30T02:23:15.467Z,4.30
2022-10-30T02:25:47.604Z,4.05
2022-10-30T02:28:18.339Z,3.77
2022-10-30T02:30:49.498Z,3.77
2022-10-30T02:33:20.405Z,4.20
2022-10-30T02:35:52.481Z,4.15
2022-10-30T02:38:22.144Z,4.28
2022-10-30T02:40:53.102Z,4.40
2022-10-30T02:43:22.057Z,4.05
2022-10-30T02:45:52.672Z,3.65
2022-10-30T02:48:23.866Z,3.67
2022-10-30T02:50:53.604Z,3.80
2022-10-30T02:53:23.758Z,4.40
2022-10-30T02:55:52.872Z,4.75
2022-10-30T02:58:23.112Z,3.50
2022-10-30T03:00:52.735Z,3.70
2022-10-30T03:03:24.110Z,4.20
2022-10-30T03:05:53.199Z,4.22
2022-10-30T03:08:23.420Z,4.17
2022-10-30T03:10:52.695Z,4.33
2022-10-30T03:13:21.962Z,3.58
2022-10-30T03:15:51.093Z,3.77
2022-10-30T03:18:20.748Z,3.90
2022-10-30T03:20:49.848Z,3.72
2022-10-30T03:23:19.003Z,3.58
2022-10-30T03:25:47.956Z,3.50
2022-10-30T03:28:16.869Z,3.62
2022-10-30T03:30:46.205Z,3.67
2022-10-30T03:33:16.307Z,4.20
2022-10-30T03:35:45.401Z,4.08
2022-10-30T03:38:15.142Z,3.90
2022-10-30T03:40:44.601Z,3.65
2022-10-30T03:43:13.723Z,3.90
2022-10-30T03:45:49.588Z,3.87
2022-10-30T03:48:22.278Z,4.00
2022-10-30T03:50:57.917Z,3.70
2022-10-30T03:53:28.336Z,4.20
2022-10-30T03:56:00.500Z,4.00
2022-10-30T03:58:30.319Z,3.90
2022-10-30T04:01:04.527Z,3.55
2022-10-30T04:03:37.374Z,4.05
2022-10-30T04:06:09.248Z,3.60
2022-10-30T04:08:40.037Z,3.17
2022-10-30T04:11:11.628Z,3.65
2022-10-30T04:13:42.978Z,3.35
2022-10-30T04:16:13.491Z,3.77
2022-10-30T04:18:43.416Z,3.70
2022-10-30T04:21:15.126Z,3.37
2022-10-30T04:23:45.419Z,3.40
2022-10-30T04:26:15.573Z,3.70
2022-10-30T04:28:48.257Z,3.85
2022-10-30T04:31:18.068Z,3.40
2022-10-30T04:33:48.306Z,3.35
2022-10-30T04:36:18.353Z,3.10
2022-10-30T04:38:47.831Z,3.27
2022-10-30T04:41:17.788Z,3.15
2022-10-30T04:43:51.245Z,3.08
2022-10-30T04:46:20.445Z,3.20
2022-10-30T04:48:50.666Z,3.72
2022-10-30T04:51:21.425Z,3.10
2022-10-30T04:53:50.355Z,2.95
2022-10-30T04:56:19.786Z,3.10
2022-10-30T04:58:50.020Z,2.90
2022-10-30T05:01:20.063Z,3.00
2022-10-30T05:03:52.044Z,3.02
2022-10-30T05:06:25.250Z,2.45
2022-10-30T05:08:56.008Z,2.62
2022-10-30T05:11:30.992Z,2.70
2022-10-30T05:14:00.902Z,2.47
2022-10-30T05:16:31.693Z,2.80
2022-10-30T05:19:03.017Z,3.05
2022-10-30T05:21:33.327Z,2.98
2022-10-30T05:24:03.692Z,2.65
2022-10-30T05:26:35.997Z,2.70
2022-10-30T05:29:06.377Z,2.37
2022-10-30T05:31:35.737Z,2.30
2022-10-30T05:34:09.111Z,2.80
2022-10-30T05:36:40.233Z,2.75
2022-10-30T05:39:10.887Z,3.02
2022-10-30T05:41:42.185Z,2.65
2022-10-30T05:44:12.261Z,2.70
2022-10-30T05:46:43.550Z,2.00
2022-10-30T05:49:27.812Z,2.20
2022-10-30T05:51:58.654Z,2.30
2022-10-30T05:54:28.375Z,2.40
2022-10-30T05:57:02.449Z,2.20
2022-10-30T05:59:31.966Z,2.05
2022-10-30T06:02:00.795Z,2.75
2022-10-30T06:04:31.708Z,2.40
2022-10-30T06:07:02.054Z,2.40
2022-10-30T06:09:31.082Z,2.27
2022-10-30T06:12:02.243Z,2.33
2022-10-30T06:14:37.188Z,1.90
2022-10-30T06:17:08.182Z,2.58
2022-10-30T06:19:54.356Z,2.02
2022-10-30T06:22:31.338Z,1.95
2022-10-30T06:25:03.054Z,2.20
2022-10-30T06:27:36.944Z,1.82
2022-10-30T06:30:08.352Z,1.80
2022-10-30T06:32:39.636Z,1.80
2022-10-30T06:35:10.706Z,1.70
2022-10-30T06:37:48.423Z,1.90
2022-10-30T06:40:18.168Z,1.57
2022-10-30T06:42:51.901Z,1.85
2022-10-30T06:45:26.136Z,1.80
2022-10-30T06:47:56.671Z,1.45
2022-10-30T06:50:26.351Z,1.90
2022-10-30T06:52:57.107Z,1.70
2022-10-30T06:55:27.871Z,1.65
2022-10-30T06:58:16.125Z,1.47
2022-10-30T07:00:47.182Z,1.35
2022-10-30T07:06:04.503Z,1.77
2022-10-30T07:08:34.585Z,2.33
2022-10-30T07:11:05.578Z,2.02
2022-10-30T07:13:53.339Z,1.67
2022-10-30T07:16:39.409Z,1.60
2022-10-30T07:19:09.370Z,1.35
2022-10-30T07:21:40.484Z,1.30
2022-10-30T07:24:10.431Z,1.30
2022-10-30T07:26:48.492Z,1.70
2022-10-30T07:29:26.128Z,1.40
2022-10-30T07:32:10.827Z,1.10
2022-10-30T07:34:47.668Z,1.17
2022-10-30T07:37:36.430Z,1.72
2022-10-30T07:40:13.189Z,1.52
2022-10-30T07:42:47.852Z,1.98
2022-10-30T07:45:31.589Z,1.60
2022-10-30T07:48:19.394Z,1.70
2022-10-30T07:50:51.841Z,1.67
2022-10-30T07:53:22.415Z,1.27
2022-10-30T07:55:52.074Z,1.45
2022-10-30T07:58:45.201Z,1.52
2022-10-30T08:01:14.432Z,1.60
2022-10-30T08:03:45.651Z,1.40
2022-10-30T08:06:22.960Z,1.07
2022-10-30T08:08:52.547Z,1.37
2022-10-30T08:11:30.768Z,1.22
2022-10-30T08:14:01.490Z,1.50
2022-10-30T08:16:31.693Z,1.57
2022-10-30T08:19:01.238Z,1.10
2022-10-30T08:21:30.962Z,1.72
2022-10-30T08:24:02.656Z,1.20
2022-10-30T08:26:35.399Z,1.35
2022-10-30T08:29:05.094Z,1.32
2022-10-30T08:31:35.446Z,1.50
2022-10-30T08:34:05.276Z,1.32
2022-10-30T08:36:38.944Z,1.40
2022-10-30T08:39:08.239Z,1.30
2022-10-30T08:41:49.755Z,1.20
2022-10-30T08:44:22.210Z,1.22
2022-10-30T08:47:09.696Z,1.27
2022-10-30T08:49:41.451Z,1.02
2022-10-30T08:52:10.878Z,1.20
2022-10-30T08:54:42.728Z,1.10
2022-10-30T08:57:13.452Z,1.40
2022-10-30T08:59:42.663Z,1.30
2022-10-30T09:02:14.741Z,1.20
2022-10-30T09:05:02.753Z,1.20
2022-10-30T09:07:43.996Z,1.00
2022-10-30T09:10:20.161Z,1.30
2022-10-30T09:12:57.211Z,1.32
2022-10-30T09:15:27.821Z,1.25
2022-10-30T09:18:01.496Z,1.12
2022-10-30T09:20:33.414Z,1.20
2022-10-30T09:23:03.363Z,1.42
2022-10-30T09:25:33.126Z,1.20
2022-10-30T09:28:16.656Z,1.40
2022-10-30T09:30:52.184Z,1.52
2022-10-30T09:33:21.827Z,1.15
2022-10-30T09:35:59.441Z,1.30
2022-10-30T09:38:30.252Z,1.55
2022-10-30T09:41:17.516Z,1.20
2022-10-30T09:44:08.748Z,1.15
2022-10-30T09:46:54.505Z,1.37
2022-10-30T09:49:44.077Z,1.85
2022-10-30T09:52:29.698Z,1.35
2022-10-30T09:55:25.891Z,1.00
2022-10-30T09:58:19.488Z,1.32
2022-10-30T10:01:13.823Z,1.40
2022-10-30T10:04:02.188Z,1.42
2022-10-30T10:06:34.217Z,1.20
2022-10-30T10:09:10.077Z,1.10
2022-10-30T10:12:09.977Z,1.37
2022-10-30T10:14:45.097Z,1.20
2022-10-30T10:17:20.134Z,1.62
2022-10-30T10:19:59.974Z,1.37
2022-10-30T10:22:43.099Z,1.40
2022-10-30T10:25:15.112Z,1.47
2022-10-30T10:28:02.184Z,1.40
2022-10-30T10:30:43.086Z,1.02
2022-10-30T10:33:25.836Z,1.10
2022-10-30T10:36:03.335Z,1.07
2022-10-30T10:38:46.971Z,1.05
2022-10-30T10:41:53.851Z,1.30
2022-10-30T10:44:33.144Z,1.30
2022-10-30T10:47:16.060Z,1.20
2022-10-30T10:50:22.219Z,1.20
2022-10-30T10:53:02.225Z,1.40
2022-10-30T10:55:36.440Z,1.17
2022-10-30T10:58:30.009Z,1.00
2022-10-30T11:00:59.085Z,1.20
2022-10-30T11:03:33.488Z,1.57
2022-10-30T11:06:27.742Z,1.75
2022-10-30T11:09:19.446Z,1.45
2022-10-30T11:11:49.574Z,1.37
2022-10-30T11:14:23.258Z,1.40
2022-10-30T11:17:15.427Z,1.50
2022-10-30T11:19:47.875Z,1.40
2022-10-30T11:22:24.301Z,1.25
2022-10-30T11:27:28.151Z,1.62
2022-10-30T11:30:05.516Z,1.50
2022-10-30T11:32:35.143Z,1.37
2022-10-30T11:35:12.542Z,1.20
2022-10-30T11:37:42.929Z,0.98
2022-10-30T11:40:23.224Z,1.40
2022-10-30T11:43:01.293Z,1.25
2022-10-30T11:45:41.429Z,1.20
2022-10-30T11:48:21.955Z,1.25
2022-10-30T11:50:52.978Z,1.20
2022-10-30T11:53:38.139Z,1.30
2022-10-30T11:56:17.291Z,1.50
2022-10-30T11:58:52.403Z,1.12
2022-10-30T12:01:35.821Z,1.40
2022-10-30T12:04:22.846Z,1.22
2022-10-30T12:07:16.417Z,1.10
2022-10-30T12:09:49.670Z,1.40
2022-10-30T12:12:34.073Z,1.22
2022-10-30T12:15:17.724Z,1.30
2022-10-30T12:18:01.851Z,1.20
2022-10-30T12:20:32.949Z,1.62
2022-10-30T12:23:22.283Z,1.30
2022-10-30T12:25:57.415Z,1.32
2022-10-30T12:28:28.637Z,1.40
2022-10-30T12:31:08.789Z,1.40
2022-10-30T12:33:52.364Z,1.60
2022-10-30T12:36:26.958Z,1.15
2022-10-30T12:39:06.979Z,1.35
2022-10-30T12:41:45.124Z,1.22
2022-10-30T12:44:27.938Z,0.90
2022-10-30T12:47:22.312Z,1.30
2022-10-30T12:49:52.276Z,1.30
2022-10-30T12:52:47.044Z,1.30
2022-10-30T12:55:39.434Z,1.60
2022-10-30T12:59:03.522Z,1.50
2022-10-30T13:01:37.136Z,1.60
2022-10-30T13:04:25.479Z,1.67
2022-10-30T13:07:41.856Z,1.47
2022-10-30T13:10:36.604Z,1.50
2022-10-30T13:13:34.706Z,1.45
2022-10-30T13:16:10.335Z,2.22
2022-10-30T13:18:39.614Z,2.00
2022-10-30T13:21:31.976Z,1.90
2022-10-30T13:24:19.658Z,1.80
2022-10-30T13:29:50.683Z,1.50
2022-10-30T13:32:40.451Z,1.80
2022-10-30T13:35:41.959Z,1.40
2022-10-30T13:38:42.649Z,1.80
2022-10-30T13:41:44.688Z,1.52
2022-10-30T13:44:44.993Z,1.50
2022-10-30T13:47:44.059Z,1.87
2022-10-30T13:53:02.872Z,1.30
2022-10-30T13:55:33.948Z,1.50
2022-10-30T13:58:16.990Z,1.50
2022-10-30T14:01:09.075Z,1.27
2022-10-30T14:03:55.391Z,1.77
2022-10-30T14:07:10.943Z,1.50
2022-10-30T14:09:45.793Z,3.52
2022-10-30T14:12:52.388Z,1.60
2022-10-30T14:15:33.931Z,1.80
2022-10-30T14:18:26.908Z,1.62
2022-10-30T14:20:57.629Z,1.30
2022-10-30T14:23:36.196Z,1.35
2022-10-30T14:26:13.811Z,1.30
2022-10-30T14:28:44.956Z,1.40
2022-10-30T14:31:18.598Z,1.30
2022-10-30T14:33:51.593Z,1.30
2022-10-30T14:36:36.534Z,1.42
2022-10-30T14:39:14.514Z,1.50
2022-10-30T14:42:28.517Z,1.65
2022-10-30T14:45:02.704Z,1.40
2022-10-30T14:48:15.053Z,1.47
2022-10-30T14:51:09.769Z,1.35
2022-10-30T14:54:07.016Z,1.40
2022-10-30T14:56:49.737Z,1.20
2022-10-30T14:59:23.682Z,1.57
2022-10-30T15:02:16.153Z,1.60
2022-10-30T15:05:21.737Z,2.02
2022-10-30T15:07:59.838Z,1.52
2022-10-30T15:10:36.088Z,1.32
2022-10-30T15:13:19.439Z,1.40
2022-10-30T15:16:08.579Z,1.70
2022-10-30T15:18:37.649Z,1.20
2022-10-30T15:21:08.507Z,1.20
2022-10-30T15:23:38.289Z,1.42
2022-10-30T15:26:11.786Z,1.37
2022-10-30T15:28:42.081Z,1.30
2022-10-30T15:31:28.330Z,1.30
2022-10-30T15:33:58.101Z,1.55
2022-10-30T15:36:39.061Z,1.27
2022-10-30T15:39:17.421Z,1.60
2022-10-30T15:42:00.381Z,1.20
2022-10-30T15:44:32.811Z,1.30
2022-10-30T15:47:04.489Z,1.60
2022-10-30T15:49:38.814Z,1.47
2022-10-30T15:52:21.535Z,1.70
2022-10-30T15:54:55.782Z,1.60
2022-10-30T15:57:57.357Z,1.80
2022-10-30T16:00:06.165Z,1.80
2022-10-30T16:02:36.469Z,1.60
2022-10-30T16:05:23.408Z,1.70
2022-10-30T16:07:59.743Z,3.72
2022-10-30T16:10:35.886Z,2.05
2022-10-30T16:13:05.409Z,1.82
2022-10-30T16:15:36.088Z,1.70
2022-10-30T16:18:15.219Z,1.70
2022-10-30T16:20:47.777Z,1.82
2022-10-30T16:23:18.296Z,1.55
2022-10-30T16:25:48.383Z,1.57
2022-10-30T16:28:37.874Z,1.67
2022-10-30T16:31:08.355Z,1.60
2022-10-30T16:33:40.501Z,2.00
2022-10-30T16:36:14.707Z,1.70
2022-10-30T16:38:46.612Z,1.57
2022-10-30T16:41:16.484Z,1.72
2022-10-30T16:43:50.986Z,1.87
2022-10-30T16:46:53.014Z,1.90
2022-10-30T16:49:27.862Z,2.60
2022-10-30T16:52:04.884Z,2.17
2022-10-30T16:54:40.774Z,1.77
2022-10-30T16:57:23.562Z,1.87
2022-10-30T16:59:53.604Z,1.82
2022-10-30T17:02:27.621Z,2.10
2022-10-30T17:05:10.108Z,2.30
2022-10-30T17:07:39.807Z,2.00
2022-10-30T17:10:38.525Z,1.80
2022-10-30T17:16:25.696Z,1.70
2022-10-30T17:19:02.873Z,1.80
2022-10-30T17:21:40.983Z,1.90
2022-10-30T17:24:22.510Z,2.10
2022-10-30T17:26:57.588Z,1.72
2022-10-30T17:29:44.256Z,1.90
2022-10-30T17:32:23.751Z,2.05
2022-10-30T17:35:10.748Z,1.50
2022-10-30T17:37:39.597Z,1.80
2022-10-30T17:40:10.574Z,2.10
2022-10-30T17:42:39.934Z,1.60
2022-10-30T17:45:13.747Z,1.80
2022-10-30T17:47:44.512Z,1.70
2022-10-30T17:50:15.259Z,1.57
2022-10-30T17:52:46.077Z,1.95
2022-10-30T17:55:23.852Z,1.72
2022-10-30T17:57:53.587Z,1.60
2022-10-30T18:00:23.297Z,1.40
2022-10-30T18:02:53.442Z,1.42
2022-10-30T18:05:25.802Z,1.60
2022-10-30T18:07:56.236Z,2.27
2022-10-30T18:10:26.780Z,1.30
2022-10-30T18:12:55.956Z,1.55
2022-10-30T18:15:32.866Z,1.50
2022-10-30T18:18:04.297Z,1.67
2022-10-30T18:20:34.661Z,1.85
2022-10-30T18:23:12.773Z,2.00
2022-10-30T18:25:43.828Z,1.50
2022-10-30T18:28:14.662Z,1.80
2022-10-30T18:30:53.736Z,1.62
2022-10-30T18:33:22.774Z,1.77
2022-10-30T18:35:56.954Z,1.55
2022-10-30T18:38:28.521Z,1.40
2022-10-30T18:40:59.397Z,1.60
2022-10-30T18:43:28.238Z,1.90
2022-10-30T18:45:57.766Z,1.47
2022-10-30T18:48:29.168Z,1.80
2022-10-30T18:50:58.348Z,1.98
2022-10-30T18:53:32.729Z,1.77
2022-10-30T18:55:59.300Z,1.60
2022-10-30T18:58:28.650Z,1.65
2022-10-30T19:01:11.474Z,1.80
2022-10-30T19:03:31.401Z,1.60
2022-10-30T19:06:00.811Z,2.40
2022-10-30T19:08:29.992Z,2.05
2022-10-30T19:11:10.712Z,1.80
2022-10-30T19:13:42.719Z,1.85
2022-10-30T19:16:15.047Z,2.02
2022-10-30T19:18:44.979Z,2.72
2022-10-30T19:21:22.676Z,2.42
2022-10-30T19:23:56.225Z,2.47
2022-10-30T19:26:26.089Z,1.90
2022-10-30T19:28:56.629Z,1.90
2022-10-30T19:31:26.226Z,2.22
2022-10-30T19:33:57.872Z,1.95
2022-10-30T19:36:36.905Z,1.77
2022-10-30T19:39:16.015Z,2.10
2022-10-30T19:41:46.548Z,1.85
2022-10-30T19:44:17.726Z,1.80
2022-10-30T19:46:47.345Z,1.75
2022-10-30T19:49:20.396Z,1.70
2022-10-30T19:51:49.660Z,1.70
2022-10-30T19:54:18.452Z,1.80
2022-10-30T19:56:47.786Z,1.55
2022-10-30T19:59:18.624Z,1.57
2022-10-30T20:01:48.855Z,2.00
2022-10-30T20:04:18.782Z,2.30
2022-10-30T20:06:49.070Z,2.27
2022-10-30T20:09:18.201Z,2.05
2022-10-30T20:11:48.488Z,2.35
2022-10-30T20:14:17.728Z,1.95
2022-10-30T20:16:48.407Z,1.80
2022-10-30T20:19:30.452Z,1.87
2022-10-30T20:22:00.477Z,2.02
2022-10-30T20:24:30.445Z,1.95
2022-10-30T20:26:59.603Z,1.98
2022-10-30T20:29:28.927Z,2.20
2022-10-30T20:31:57.799Z,2.95
2022-10-30T20:34:28.893Z,2.45
2022-10-30T20:36:59.449Z,2.50
2022-10-30T20:39:28.023Z,2.92
2022-10-30T20:41:58.798Z,2.17
2022-10-30T20:44:28.321Z,1.90
2022-10-30T20:46:57.861Z,1.85
2022-10-30T20:49:40.244Z,1.50
2022-10-30T20:52:09.477Z,1.70
2022-10-30T20:54:39.189Z,1.60
2022-10-30T20:57:08.510Z,1.50
2022-10-30T20:59:38.761Z,1.67
2022-10-30T21:02:11.570Z,1.52
2022-10-30T21:04:43.108Z,2.00
2022-10-30T21:07:13.718Z,1.70
2022-10-30T21:09:43.154Z,1.60
2022-10-30T21:12:13.048Z,1.65
2022-10-30T21:14:43.239Z,1.62
2022-10-30T21:17:12.915Z,1.60
2022-10-30T21:19:42.265Z,1.70
2022-10-30T21:22:11.286Z,1.90
2022-10-30T21:24:40.374Z,1.75
2022-10-30T21:27:10.169Z,1.70
2022-10-30T21:29:40.052Z,1.65
2022-10-30T21:32:10.228Z,1.67
2022-10-30T21:34:39.208Z,1.80
2022-10-30T21:37:08.340Z,1.47
2022-10-30T21:39:37.809Z,1.77
2022-10-30T21:42:08.477Z,1.65
2022-10-30T21:44:37.564Z,1.40
2022-10-30T21:47:06.659Z,1.40
2022-10-30T21:49:35.776Z,1.65
2022-10-30T21:52:06.366Z,1.27
2022-10-30T21:54:36.482Z,1.52
2022-10-30T21:57:06.574Z,1.45
2022-10-30T21:59:35.921Z,1.47
2022-10-30T22:02:05.721Z,1.65
2022-10-30T22:04:34.935Z,1.52
2022-10-30T22:07:03.860Z,2.40
2022-10-30T22:09:34.317Z,2.02
2022-10-30T22:12:05.429Z,2.30
2022-10-30T22:14:34.911Z,3.02
2022-10-30T22:17:03.575Z,2.83
2022-10-30T22:19:34.175Z,2.98
2022-10-30T22:22:04.390Z,2.58
2022-10-30T22:24:34.324Z,1.45
2022-10-30T22:27:04.075Z,1.72
2022-10-30T22:29:34.188Z,1.60
2022-10-30T22:32:03.830Z,1.80
2022-10-30T22:34:33.189Z,2.05
2022-10-30T22:37:02.148Z,1.57
2022-10-30T22:39:32.224Z,1.57
2022-10-30T22:42:01.151Z,1.50
2022-10-30T22:44:29.979Z,1.30
2022-10-30T22:46:58.665Z,1.25
2022-10-30T22:49:27.997Z,1.15
2022-10-30T22:51:56.794Z,1.60
2022-10-30T22:54:26.980Z,1.50
2022-10-30T22:56:56.473Z,1.35
2022-10-30T22:59:27.528Z,1.17
2022-10-30T23:01:57.384Z,1.30
2022-10-30T23:04:27.181Z,1.27
2022-10-30T23:06:55.947Z,1.25
2022-10-30T23:09:25.457Z,1.17
2022-10-30T23:11:54.153Z,1.50
2022-10-30T23:14:24.624Z,1.40
2022-10-30T23:16:53.807Z,1.40
2022-10-30T23:19:23.652Z,1.40
2022-10-30T23:21:57.254Z,1.27
2022-10-30T23:24:26.453Z,1.37
2022-10-30T23:26:56.207Z,1.27
2022-10-30T23:29:25.859Z,1.42
2022-10-30T23:31:55.167Z,1.30
2022-10-30T23:34:25.215Z,1.35
2022-10-30T23:36:59.131Z,1.15
2022-10-30T23:39:28.355Z,1.30
2022-10-30T23:41:57.340Z,1.25
2022-10-30T23:44:28.467Z,1.20
2022-10-30T23:46:58.644Z,1.47
2022-10-30T23:49:33.093Z,1.15
2022-10-30T23:51:58.740Z,1.50
2022-10-30T23:54:29.069Z,1.25
2022-10-30T23:56:57.991Z,1.30
2022-10-30T23:59:27.481Z,1.60
